sensor_id;sensor_type;location;lat;lon;timestamp;P1;durP1;ratioP1;P2;durP2;ratioP2
61702;SDS011;47622;47.726;3.298;2022-12-07T00:01:05;46.92;;;19.02;;
61702;SDS011;47622;47.726;3.298;2022-12-07T00:03:31;51.15;;;18.38;;
61702;SDS011;47622;47.726;3.298;2022-12-07T00:05:58;52.13;;;19.85;;
61702;SDS011;47622;47.726;3.298;2022-12-07T00:08:23;47.00;;;18.52;;
61702;SDS011;47622;47.726;3.298;2022-12-07T00:10:49;52.47;;;19.65;;
61702;SDS011;47622;47.726;3.298;2022-12-07T00:13:15;48.20;;;20.33;;
61702;SDS011;47622;47.726;3.298;2022-12-07T00:15:40;51.55;;;18.77;;
61702;SDS011;47622;47.726;3.298;2022-12-07T00:18:06;50.40;;;18.23;;
61702;SDS011;47622;47.726;3.298;2022-12-07T00:20:32;49.05;;;18.30;;
61702;SDS011;47622;47.726;3.298;2022-12-07T00:22:58;57.88;;;19.25;;
61702;SDS011;47622;47.726;3.298;2022-12-07T00:25:24;53.67;;;20.48;;
61702;SDS011;47622;47.726;3.298;2022-12-07T00:27:51;49.20;;;18.60;;
61702;SDS011;47622;47.726;3.298;2022-12-07T00:30:18;47.75;;;18.00;;
61702;SDS011;47622;47.726;3.298;2022-12-07T00:32:43;50.38;;;18.83;;
61702;SDS011;47622;47.726;3.298;2022-12-07T00:35:09;44.42;;;17.42;;
61702;SDS011;47622;47.726;3.298;2022-12-07T00:37:34;51.63;;;16.63;;
61702;SDS011;47622;47.726;3.298;2022-12-07T00:40:00;56.22;;;20.30;;
61702;SDS011;47622;47.726;3.298;2022-12-07T00:42:26;54.35;;;18.98;;
61702;SDS011;47622;47.726;3.298;2022-12-07T00:44:51;43.63;;;17.90;;
61702;SDS011;47622;47.726;3.298;2022-12-07T00:47:17;47.63;;;18.33;;
61702;SDS011;47622;47.726;3.298;2022-12-07T00:49:42;45.22;;;17.95;;
61702;SDS011;47622;47.726;3.298;2022-12-07T00:52:08;50.42;;;19.05;;
61702;SDS011;47622;47.726;3.298;2022-12-07T00:54:33;49.55;;;17.70;;
61702;SDS011;47622;47.726;3.298;2022-12-07T00:56:59;54.13;;;19.67;;
61702;SDS011;47622;47.726;3.298;2022-12-07T00:59:25;46.28;;;18.85;;
61702;SDS011;47622;47.726;3.298;2022-12-07T01:01:50;40.83;;;17.92;;
61702;SDS011;47622;47.726;3.298;2022-12-07T01:04:16;50.70;;;18.00;;
61702;SDS011;47622;47.726;3.298;2022-12-07T01:06:41;46.35;;;17.83;;
61702;SDS011;47622;47.726;3.298;2022-12-07T01:09:07;50.80;;;18.33;;
61702;SDS011;47622;47.726;3.298;2022-12-07T01:11:32;44.00;;;18.55;;
61702;SDS011;47622;47.726;3.298;2022-12-07T01:13:59;56.42;;;17.88;;
61702;SDS011;47622;47.726;3.298;2022-12-07T01:16:26;47.22;;;17.30;;
61702;SDS011;47622;47.726;3.298;2022-12-07T01:18:54;44.90;;;18.02;;
61702;SDS011;47622;47.726;3.298;2022-12-07T01:23:51;45.03;;;16.30;;
61702;SDS011;47622;47.726;3.298;2022-12-07T01:26:19;40.22;;;16.17;;
61702;SDS011;47622;47.726;3.298;2022-12-07T01:28:48;47.45;;;18.08;;
61702;SDS011;47622;47.726;3.298;2022-12-07T01:31:18;48.40;;;18.48;;
61702;SDS011;47622;47.726;3.298;2022-12-07T01:33:47;46.35;;;17.52;;
61702;SDS011;47622;47.726;3.298;2022-12-07T01:36:15;42.28;;;16.63;;
61702;SDS011;47622;47.726;3.298;2022-12-07T01:38:43;48.40;;;18.13;;
61702;SDS011;47622;47.726;3.298;2022-12-07T01:41:09;43.65;;;16.55;;
61702;SDS011;47622;47.726;3.298;2022-12-07T01:43:36;41.70;;;16.70;;
61702;SDS011;47622;47.726;3.298;2022-12-07T01:46:02;39.63;;;17.65;;
61702;SDS011;47622;47.726;3.298;2022-12-07T01:48:37;41.47;;;17.88;;
61702;SDS011;47622;47.726;3.298;2022-12-07T01:51:10;40.28;;;15.70;;
61702;SDS011;47622;47.726;3.298;2022-12-07T01:53:40;45.60;;;18.40;;
61702;SDS011;47622;47.726;3.298;2022-12-07T01:56:10;38.63;;;16.67;;
61702;SDS011;47622;47.726;3.298;2022-12-07T01:58:41;42.90;;;17.08;;
61702;SDS011;47622;47.726;3.298;2022-12-07T02:01:06;35.35;;;15.20;;
61702;SDS011;47622;47.726;3.298;2022-12-07T02:03:34;44.40;;;18.08;;
61702;SDS011;47622;47.726;3.298;2022-12-07T02:06:04;41.80;;;16.33;;
61702;SDS011;47622;47.726;3.298;2022-12-07T02:08:31;40.25;;;17.33;;
61702;SDS011;47622;47.726;3.298;2022-12-07T02:10:57;35.30;;;15.75;;
61702;SDS011;47622;47.726;3.298;2022-12-07T02:13:24;44.40;;;17.77;;
61702;SDS011;47622;47.726;3.298;2022-12-07T02:21:46;35.00;;;16.35;;
61702;SDS011;47622;47.726;3.298;2022-12-07T02:29:57;34.97;;;15.93;;
61702;SDS011;47622;47.726;3.298;2022-12-07T02:35:06;40.33;;;15.00;;
61702;SDS011;47622;47.726;3.298;2022-12-07T02:40:25;29.17;;;13.60;;
61702;SDS011;47622;47.726;3.298;2022-12-07T02:43:04;29.65;;;13.93;;
61702;SDS011;47622;47.726;3.298;2022-12-07T02:45:50;27.67;;;13.20;;
61702;SDS011;47622;47.726;3.298;2022-12-07T02:48:18;33.78;;;13.65;;
61702;SDS011;47622;47.726;3.298;2022-12-07T02:50:49;26.08;;;11.88;;
61702;SDS011;47622;47.726;3.298;2022-12-07T02:53:35;27.77;;;13.43;;
61702;SDS011;47622;47.726;3.298;2022-12-07T02:56:15;24.42;;;11.90;;
61702;SDS011;47622;47.726;3.298;2022-12-07T02:58:47;26.48;;;12.35;;
61702;SDS011;47622;47.726;3.298;2022-12-07T03:03:59;24.20;;;12.00;;
61702;SDS011;47622;47.726;3.298;2022-12-07T03:06:36;23.90;;;12.18;;
61702;SDS011;47622;47.726;3.298;2022-12-07T03:11:47;22.85;;;11.27;;
61702;SDS011;47622;47.726;3.298;2022-12-07T03:14:19;27.35;;;12.93;;
61702;SDS011;47622;47.726;3.298;2022-12-07T03:17:00;25.70;;;12.23;;
61702;SDS011;47622;47.726;3.298;2022-12-07T03:19:30;22.60;;;10.82;;
61702;SDS011;47622;47.726;3.298;2022-12-07T03:22:03;23.92;;;12.07;;
61702;SDS011;47622;47.726;3.298;2022-12-07T03:24:53;23.15;;;11.88;;
61702;SDS011;47622;47.726;3.298;2022-12-07T03:27:22;22.45;;;12.38;;
61702;SDS011;47622;47.726;3.298;2022-12-07T03:30:00;23.35;;;11.77;;
61702;SDS011;47622;47.726;3.298;2022-12-07T03:32:37;22.83;;;11.80;;
61702;SDS011;47622;47.726;3.298;2022-12-07T03:35:19;27.25;;;11.57;;
61702;SDS011;47622;47.726;3.298;2022-12-07T03:37:51;23.70;;;11.88;;
61702;SDS011;47622;47.726;3.298;2022-12-07T03:40:23;21.00;;;11.23;;
61702;SDS011;47622;47.726;3.298;2022-12-07T03:42:53;23.55;;;12.68;;
61702;SDS011;47622;47.726;3.298;2022-12-07T03:45:21;24.05;;;11.55;;
61702;SDS011;47622;47.726;3.298;2022-12-07T03:48:07;27.25;;;13.20;;
61702;SDS011;47622;47.726;3.298;2022-12-07T03:50:45;22.75;;;12.05;;
61702;SDS011;47622;47.726;3.298;2022-12-07T03:53:39;24.67;;;11.82;;
61702;SDS011;47622;47.726;3.298;2022-12-07T03:56:06;22.48;;;11.43;;
61702;SDS011;47622;47.726;3.298;2022-12-07T03:58:34;24.15;;;11.82;;
61702;SDS011;47622;47.726;3.298;2022-12-07T04:01:01;25.38;;;12.10;;
61702;SDS011;47622;47.726;3.298;2022-12-07T04:03:26;26.05;;;11.77;;
61702;SDS011;47622;47.726;3.298;2022-12-07T04:05:52;29.45;;;12.95;;
61702;SDS011;47622;47.726;3.298;2022-12-07T04:08:18;23.73;;;12.25;;
61702;SDS011;47622;47.726;3.298;2022-12-07T04:10:44;28.40;;;12.32;;
61702;SDS011;47622;47.726;3.298;2022-12-07T04:13:10;24.90;;;11.60;;
61702;SDS011;47622;47.726;3.298;2022-12-07T04:15:36;22.98;;;11.80;;
61702;SDS011;47622;47.726;3.298;2022-12-07T04:18:02;25.30;;;12.68;;
61702;SDS011;47622;47.726;3.298;2022-12-07T04:20:27;20.38;;;10.30;;
61702;SDS011;47622;47.726;3.298;2022-12-07T04:22:53;20.95;;;10.88;;
61702;SDS011;47622;47.726;3.298;2022-12-07T04:25:18;22.60;;;11.70;;
61702;SDS011;47622;47.726;3.298;2022-12-07T04:27:44;22.15;;;11.57;;
61702;SDS011;47622;47.726;3.298;2022-12-07T04:30:10;22.38;;;11.57;;
61702;SDS011;47622;47.726;3.298;2022-12-07T04:32:35;24.33;;;12.15;;
61702;SDS011;47622;47.726;3.298;2022-12-07T04:35:02;20.33;;;11.13;;
61702;SDS011;47622;47.726;3.298;2022-12-07T04:37:28;22.17;;;11.10;;
61702;SDS011;47622;47.726;3.298;2022-12-07T04:39:54;23.60;;;11.77;;
61702;SDS011;47622;47.726;3.298;2022-12-07T04:42:19;21.73;;;11.45;;
61702;SDS011;47622;47.726;3.298;2022-12-07T04:44:45;22.15;;;11.70;;
61702;SDS011;47622;47.726;3.298;2022-12-07T04:47:10;22.45;;;11.80;;
61702;SDS011;47622;47.726;3.298;2022-12-07T04:49:36;21.33;;;11.25;;
61702;SDS011;47622;47.726;3.298;2022-12-07T04:52:02;21.38;;;11.02;;
61702;SDS011;47622;47.726;3.298;2022-12-07T04:54:27;18.67;;;10.65;;
61702;SDS011;47622;47.726;3.298;2022-12-07T04:56:53;22.83;;;10.73;;
61702;SDS011;47622;47.726;3.298;2022-12-07T04:59:18;21.42;;;11.15;;
61702;SDS011;47622;47.726;3.298;2022-12-07T05:01:44;23.63;;;11.90;;
61702;SDS011;47622;47.726;3.298;2022-12-07T05:04:10;22.05;;;11.60;;
61702;SDS011;47622;47.726;3.298;2022-12-07T05:06:36;24.50;;;11.88;;
61702;SDS011;47622;47.726;3.298;2022-12-07T05:09:02;19.95;;;11.18;;
61702;SDS011;47622;47.726;3.298;2022-12-07T05:11:28;24.20;;;12.18;;
61702;SDS011;47622;47.726;3.298;2022-12-07T05:14:04;25.63;;;12.10;;
61702;SDS011;47622;47.726;3.298;2022-12-07T05:16:32;23.02;;;12.30;;
61702;SDS011;47622;47.726;3.298;2022-12-07T05:18:58;23.25;;;11.57;;
61702;SDS011;47622;47.726;3.298;2022-12-07T05:21:24;25.95;;;11.30;;
61702;SDS011;47622;47.726;3.298;2022-12-07T05:23:49;24.17;;;12.18;;
61702;SDS011;47622;47.726;3.298;2022-12-07T05:26:15;23.10;;;11.40;;
61702;SDS011;47622;47.726;3.298;2022-12-07T05:28:41;23.70;;;12.50;;
61702;SDS011;47622;47.726;3.298;2022-12-07T05:31:07;24.20;;;11.70;;
61702;SDS011;47622;47.726;3.298;2022-12-07T05:33:32;22.25;;;11.43;;
61702;SDS011;47622;47.726;3.298;2022-12-07T05:35:58;22.33;;;11.85;;
61702;SDS011;47622;47.726;3.298;2022-12-07T05:38:24;21.08;;;10.18;;
61702;SDS011;47622;47.726;3.298;2022-12-07T05:40:52;20.98;;;10.63;;
61702;SDS011;47622;47.726;3.298;2022-12-07T05:43:18;24.23;;;12.13;;
61702;SDS011;47622;47.726;3.298;2022-12-07T05:45:43;23.63;;;11.25;;
61702;SDS011;47622;47.726;3.298;2022-12-07T05:48:09;26.75;;;12.02;;
61702;SDS011;47622;47.726;3.298;2022-12-07T05:50:35;22.50;;;10.93;;
61702;SDS011;47622;47.726;3.298;2022-12-07T05:53:00;23.65;;;11.40;;
61702;SDS011;47622;47.726;3.298;2022-12-07T05:55:26;23.08;;;11.98;;
61702;SDS011;47622;47.726;3.298;2022-12-07T05:57:51;23.17;;;10.98;;
61702;SDS011;47622;47.726;3.298;2022-12-07T06:00:35;24.85;;;11.48;;
61702;SDS011;47622;47.726;3.298;2022-12-07T06:03:01;19.85;;;9.95;;
61702;SDS011;47622;47.726;3.298;2022-12-07T06:05:26;24.80;;;11.30;;
61702;SDS011;47622;47.726;3.298;2022-12-07T06:07:52;19.77;;;10.38;;
61702;SDS011;47622;47.726;3.298;2022-12-07T06:10:17;21.00;;;10.25;;
61702;SDS011;47622;47.726;3.298;2022-12-07T06:12:43;22.75;;;11.10;;
61702;SDS011;47622;47.726;3.298;2022-12-07T06:15:11;24.08;;;10.60;;
61702;SDS011;47622;47.726;3.298;2022-12-07T06:17:38;22.75;;;10.65;;
61702;SDS011;47622;47.726;3.298;2022-12-07T06:20:04;21.13;;;11.13;;
61702;SDS011;47622;47.726;3.298;2022-12-07T06:22:30;23.60;;;10.80;;
61702;SDS011;47622;47.726;3.298;2022-12-07T06:24:56;22.55;;;10.65;;
61702;SDS011;47622;47.726;3.298;2022-12-07T06:27:21;21.88;;;10.88;;
61702;SDS011;47622;47.726;3.298;2022-12-07T06:29:47;20.80;;;11.43;;
61702;SDS011;47622;47.726;3.298;2022-12-07T06:32:12;22.42;;;10.55;;
61702;SDS011;47622;47.726;3.298;2022-12-07T06:34:38;23.75;;;10.95;;
61702;SDS011;47622;47.726;3.298;2022-12-07T06:37:03;21.58;;;11.90;;
61702;SDS011;47622;47.726;3.298;2022-12-07T06:39:29;21.52;;;10.48;;
61702;SDS011;47622;47.726;3.298;2022-12-07T06:41:56;20.95;;;11.15;;
61702;SDS011;47622;47.726;3.298;2022-12-07T06:44:22;24.33;;;11.73;;
61702;SDS011;47622;47.726;3.298;2022-12-07T06:46:48;25.20;;;10.88;;
61702;SDS011;47622;47.726;3.298;2022-12-07T06:49:15;21.00;;;10.35;;
61702;SDS011;47622;47.726;3.298;2022-12-07T06:51:40;21.20;;;10.77;;
61702;SDS011;47622;47.726;3.298;2022-12-07T06:54:07;19.70;;;10.60;;
61702;SDS011;47622;47.726;3.298;2022-12-07T06:56:36;26.08;;;12.30;;
61702;SDS011;47622;47.726;3.298;2022-12-07T06:59:03;24.42;;;10.77;;
61702;SDS011;47622;47.726;3.298;2022-12-07T07:01:31;23.58;;;11.27;;
61702;SDS011;47622;47.726;3.298;2022-12-07T07:03:57;25.92;;;11.43;;
61702;SDS011;47622;47.726;3.298;2022-12-07T07:06:23;25.10;;;11.13;;
61702;SDS011;47622;47.726;3.298;2022-12-07T07:08:48;24.60;;;11.70;;
61702;SDS011;47622;47.726;3.298;2022-12-07T07:11:14;23.27;;;10.65;;
61702;SDS011;47622;47.726;3.298;2022-12-07T07:13:40;26.40;;;10.38;;
61702;SDS011;47622;47.726;3.298;2022-12-07T07:16:06;53.92;;;10.85;;
61702;SDS011;47622;47.726;3.298;2022-12-07T07:18:35;28.00;;;9.88;;
61702;SDS011;47622;47.726;3.298;2022-12-07T07:21:02;28.67;;;9.75;;
61702;SDS011;47622;47.726;3.298;2022-12-07T07:23:29;31.48;;;9.50;;
61702;SDS011;47622;47.726;3.298;2022-12-07T07:25:55;21.10;;;9.02;;
61702;SDS011;47622;47.726;3.298;2022-12-07T07:28:21;26.80;;;8.68;;
61702;SDS011;47622;47.726;3.298;2022-12-07T07:30:47;23.23;;;8.18;;
61702;SDS011;47622;47.726;3.298;2022-12-07T07:33:12;17.85;;;8.10;;
61702;SDS011;47622;47.726;3.298;2022-12-07T07:35:38;17.25;;;8.57;;
61702;SDS011;47622;47.726;3.298;2022-12-07T07:38:04;20.63;;;9.38;;
61702;SDS011;47622;47.726;3.298;2022-12-07T07:40:30;27.15;;;8.25;;
61702;SDS011;47622;47.726;3.298;2022-12-07T07:42:56;19.85;;;9.05;;
61702;SDS011;47622;47.726;3.298;2022-12-07T07:45:23;17.42;;;9.60;;
61702;SDS011;47622;47.726;3.298;2022-12-07T07:47:50;17.45;;;8.55;;
61702;SDS011;47622;47.726;3.298;2022-12-07T07:50:16;19.88;;;8.82;;
61702;SDS011;47622;47.726;3.298;2022-12-07T07:52:42;16.83;;;8.80;;
61702;SDS011;47622;47.726;3.298;2022-12-07T07:55:08;16.92;;;7.32;;
61702;SDS011;47622;47.726;3.298;2022-12-07T07:57:34;15.70;;;8.10;;
61702;SDS011;47622;47.726;3.298;2022-12-07T08:00:01;16.90;;;7.40;;
61702;SDS011;47622;47.726;3.298;2022-12-07T08:02:29;16.48;;;7.65;;
61702;SDS011;47622;47.726;3.298;2022-12-07T08:04:55;17.58;;;9.20;;
61702;SDS011;47622;47.726;3.298;2022-12-07T08:07:20;16.33;;;7.50;;
61702;SDS011;47622;47.726;3.298;2022-12-07T08:09:46;16.33;;;7.97;;
61702;SDS011;47622;47.726;3.298;2022-12-07T08:12:12;14.60;;;7.68;;
61702;SDS011;47622;47.726;3.298;2022-12-07T08:14:37;13.85;;;7.22;;
61702;SDS011;47622;47.726;3.298;2022-12-07T08:17:03;15.60;;;8.77;;
61702;SDS011;47622;47.726;3.298;2022-12-07T08:19:28;15.77;;;7.68;;
61702;SDS011;47622;47.726;3.298;2022-12-07T08:21:54;14.10;;;8.02;;
61702;SDS011;47622;47.726;3.298;2022-12-07T08:24:21;13.40;;;7.28;;
61702;SDS011;47622;47.726;3.298;2022-12-07T08:26:46;15.90;;;7.97;;
61702;SDS011;47622;47.726;3.298;2022-12-07T08:29:12;16.70;;;8.85;;
61702;SDS011;47622;47.726;3.298;2022-12-07T08:31:37;18.58;;;8.95;;
61702;SDS011;47622;47.726;3.298;2022-12-07T08:34:03;14.70;;;7.97;;
61702;SDS011;47622;47.726;3.298;2022-12-07T08:36:28;17.65;;;8.15;;
61702;SDS011;47622;47.726;3.298;2022-12-07T08:38:54;18.83;;;9.10;;
61702;SDS011;47622;47.726;3.298;2022-12-07T08:41:20;17.48;;;8.38;;
61702;SDS011;47622;47.726;3.298;2022-12-07T08:43:45;15.35;;;8.38;;
61702;SDS011;47622;47.726;3.298;2022-12-07T08:48:49;17.35;;;9.25;;
61702;SDS011;47622;47.726;3.298;2022-12-07T08:51:23;16.63;;;8.90;;
61702;SDS011;47622;47.726;3.298;2022-12-07T08:53:50;17.02;;;8.52;;
61702;SDS011;47622;47.726;3.298;2022-12-07T08:56:17;19.90;;;9.75;;
61702;SDS011;47622;47.726;3.298;2022-12-07T08:58:43;15.20;;;7.93;;
61702;SDS011;47622;47.726;3.298;2022-12-07T09:01:09;16.48;;;8.35;;
61702;SDS011;47622;47.726;3.298;2022-12-07T09:03:35;16.15;;;8.60;;
61702;SDS011;47622;47.726;3.298;2022-12-07T09:06:01;18.98;;;7.93;;
61702;SDS011;47622;47.726;3.298;2022-12-07T09:08:28;15.05;;;7.20;;
61702;SDS011;47622;47.726;3.298;2022-12-07T09:10:58;14.43;;;7.80;;
61702;SDS011;47622;47.726;3.298;2022-12-07T09:13:24;12.88;;;6.90;;
61702;SDS011;47622;47.726;3.298;2022-12-07T09:15:49;15.75;;;7.40;;
61702;SDS011;47622;47.726;3.298;2022-12-07T09:18:16;15.55;;;7.57;;
61702;SDS011;47622;47.726;3.298;2022-12-07T09:20:41;15.45;;;8.52;;
61702;SDS011;47622;47.726;3.298;2022-12-07T09:23:07;16.27;;;7.55;;
61702;SDS011;47622;47.726;3.298;2022-12-07T09:25:33;16.75;;;8.35;;
61702;SDS011;47622;47.726;3.298;2022-12-07T09:27:59;13.95;;;7.22;;
61702;SDS011;47622;47.726;3.298;2022-12-07T09:30:26;16.42;;;7.47;;
61702;SDS011;47622;47.726;3.298;2022-12-07T09:32:52;14.30;;;7.38;;
61702;SDS011;47622;47.726;3.298;2022-12-07T09:35:19;17.27;;;7.78;;
61702;SDS011;47622;47.726;3.298;2022-12-07T09:37:44;14.27;;;7.50;;
61702;SDS011;47622;47.726;3.298;2022-12-07T09:40:11;11.73;;;6.53;;
61702;SDS011;47622;47.726;3.298;2022-12-07T09:42:38;15.57;;;7.25;;
61702;SDS011;47622;47.726;3.298;2022-12-07T09:45:07;13.82;;;6.68;;
61702;SDS011;47622;47.726;3.298;2022-12-07T09:47:37;14.45;;;7.40;;
61702;SDS011;47622;47.726;3.298;2022-12-07T09:50:05;17.38;;;7.80;;
61702;SDS011;47622;47.726;3.298;2022-12-07T09:52:37;13.60;;;8.13;;
61702;SDS011;47622;47.726;3.298;2022-12-07T09:55:03;14.25;;;7.07;;
61702;SDS011;47622;47.726;3.298;2022-12-07T09:57:34;14.57;;;7.70;;
61702;SDS011;47622;47.726;3.298;2022-12-07T10:00:04;16.63;;;8.30;;
61702;SDS011;47622;47.726;3.298;2022-12-07T10:02:36;14.63;;;7.95;;
61702;SDS011;47622;47.726;3.298;2022-12-07T10:05:05;13.57;;;7.88;;
61702;SDS011;47622;47.726;3.298;2022-12-07T10:07:32;16.08;;;8.38;;
61702;SDS011;47622;47.726;3.298;2022-12-07T10:09:57;14.38;;;7.82;;
61702;SDS011;47622;47.726;3.298;2022-12-07T10:12:23;15.73;;;8.68;;
61702;SDS011;47622;47.726;3.298;2022-12-07T10:14:59;11.95;;;7.57;;
61702;SDS011;47622;47.726;3.298;2022-12-07T10:22:37;15.38;;;7.90;;
61702;SDS011;47622;47.726;3.298;2022-12-07T10:25:09;15.65;;;7.78;;
61702;SDS011;47622;47.726;3.298;2022-12-07T10:27:43;16.05;;;7.65;;
61702;SDS011;47622;47.726;3.298;2022-12-07T10:30:23;14.20;;;7.70;;
61702;SDS011;47622;47.726;3.298;2022-12-07T10:32:48;14.40;;;8.13;;
61702;SDS011;47622;47.726;3.298;2022-12-07T10:37:46;13.40;;;7.97;;
61702;SDS011;47622;47.726;3.298;2022-12-07T10:40:29;13.10;;;7.93;;
61702;SDS011;47622;47.726;3.298;2022-12-07T10:57:13;9.65;;;6.43;;
61702;SDS011;47622;47.726;3.298;2022-12-07T11:02:32;14.07;;;7.57;;
61702;SDS011;47622;47.726;3.298;2022-12-07T11:05:03;11.30;;;6.50;;
61702;SDS011;47622;47.726;3.298;2022-12-07T11:29:08;12.07;;;7.53;;
61702;SDS011;47622;47.726;3.298;2022-12-07T11:32:04;14.18;;;7.57;;
61702;SDS011;47622;47.726;3.298;2022-12-07T11:35:08;10.27;;;6.55;;
61702;SDS011;47622;47.726;3.298;2022-12-07T11:37:36;10.45;;;6.32;;
61702;SDS011;47622;47.726;3.298;2022-12-07T11:40:04;10.73;;;6.70;;
61702;SDS011;47622;47.726;3.298;2022-12-07T11:42:42;13.15;;;7.65;;
61702;SDS011;47622;47.726;3.298;2022-12-07T11:45:16;10.25;;;6.50;;
61702;SDS011;47622;47.726;3.298;2022-12-07T11:47:47;11.65;;;6.90;;
61702;SDS011;47622;47.726;3.298;2022-12-07T11:58:44;9.65;;;6.03;;
61702;SDS011;47622;47.726;3.298;2022-12-07T12:03:45;11.73;;;6.60;;
61702;SDS011;47622;47.726;3.298;2022-12-07T12:06:13;10.98;;;7.00;;
61702;SDS011;47622;47.726;3.298;2022-12-07T12:08:40;12.48;;;7.15;;
61702;SDS011;47622;47.726;3.298;2022-12-07T12:14:14;10.77;;;6.40;;
61702;SDS011;47622;47.726;3.298;2022-12-07T12:22:20;10.75;;;7.10;;
61702;SDS011;47622;47.726;3.298;2022-12-07T12:24:52;10.00;;;6.97;;
61702;SDS011;47622;47.726;3.298;2022-12-07T12:29:57;11.25;;;6.82;;
61702;SDS011;47622;47.726;3.298;2022-12-07T12:47:57;10.10;;;5.47;;
61702;SDS011;47622;47.726;3.298;2022-12-07T12:50:28;8.93;;;5.53;;
61702;SDS011;47622;47.726;3.298;2022-12-07T12:53:02;10.27;;;6.82;;
61702;SDS011;47622;47.726;3.298;2022-12-07T13:00:46;8.32;;;5.88;;
61702;SDS011;47622;47.726;3.298;2022-12-07T13:03:29;10.38;;;6.53;;
61702;SDS011;47622;47.726;3.298;2022-12-07T13:11:20;10.00;;;5.60;;
61702;SDS011;47622;47.726;3.298;2022-12-07T13:14:35;9.48;;;5.57;;
61702;SDS011;47622;47.726;3.298;2022-12-07T13:19:52;9.82;;;5.50;;
61702;SDS011;47622;47.726;3.298;2022-12-07T13:24:57;11.30;;;5.75;;
61702;SDS011;47622;47.726;3.298;2022-12-07T13:27:47;11.23;;;6.53;;
61702;SDS011;47622;47.726;3.298;2022-12-07T13:30:42;10.30;;;6.70;;
61702;SDS011;47622;47.726;3.298;2022-12-07T13:33:11;9.73;;;6.32;;
61702;SDS011;47622;47.726;3.298;2022-12-07T13:35:37;11.43;;;7.32;;
61702;SDS011;47622;47.726;3.298;2022-12-07T13:38:16;10.90;;;7.35;;
61702;SDS011;47622;47.726;3.298;2022-12-07T13:43:58;11.98;;;6.95;;
61702;SDS011;47622;47.726;3.298;2022-12-07T13:46:31;14.32;;;7.18;;
61702;SDS011;47622;47.726;3.298;2022-12-07T13:49:15;12.20;;;6.50;;
61702;SDS011;47622;47.726;3.298;2022-12-07T13:51:53;9.00;;;5.75;;
61702;SDS011;47622;47.726;3.298;2022-12-07T13:54:20;13.82;;;7.03;;
61702;SDS011;47622;47.726;3.298;2022-12-07T13:56:48;13.32;;;7.20;;
61702;SDS011;47622;47.726;3.298;2022-12-07T13:59:24;12.20;;;7.80;;
61702;SDS011;47622;47.726;3.298;2022-12-07T14:01:52;12.80;;;8.65;;
61702;SDS011;47622;47.726;3.298;2022-12-07T14:06:56;18.83;;;10.23;;
61702;SDS011;47622;47.726;3.298;2022-12-07T14:09:23;15.27;;;9.45;;
61702;SDS011;47622;47.726;3.298;2022-12-07T14:11:51;17.77;;;11.00;;
61702;SDS011;47622;47.726;3.298;2022-12-07T14:14:25;19.02;;;11.57;;
61702;SDS011;47622;47.726;3.298;2022-12-07T14:17:00;16.45;;;9.73;;
61702;SDS011;47622;47.726;3.298;2022-12-07T14:22:34;19.35;;;9.40;;
61702;SDS011;47622;47.726;3.298;2022-12-07T14:27:39;18.95;;;10.30;;
61702;SDS011;47622;47.726;3.298;2022-12-07T14:30:15;17.83;;;9.15;;
61702;SDS011;47622;47.726;3.298;2022-12-07T14:32:42;24.45;;;12.32;;
61702;SDS011;47622;47.726;3.298;2022-12-07T14:35:13;20.05;;;10.48;;
61702;SDS011;47622;47.726;3.298;2022-12-07T14:37:42;18.08;;;10.55;;
61702;SDS011;47622;47.726;3.298;2022-12-07T14:40:14;18.17;;;10.77;;
61702;SDS011;47622;47.726;3.298;2022-12-07T14:42:41;21.23;;;11.32;;
61702;SDS011;47622;47.726;3.298;2022-12-07T14:45:13;22.30;;;11.85;;
61702;SDS011;47622;47.726;3.298;2022-12-07T14:47:40;19.00;;;11.52;;
61702;SDS011;47622;47.726;3.298;2022-12-07T14:50:06;22.85;;;12.10;;
61702;SDS011;47622;47.726;3.298;2022-12-07T14:52:32;20.33;;;11.15;;
61702;SDS011;47622;47.726;3.298;2022-12-07T14:54:58;22.30;;;11.13;;
61702;SDS011;47622;47.726;3.298;2022-12-07T14:57:23;22.70;;;11.88;;
61702;SDS011;47622;47.726;3.298;2022-12-07T14:59:49;26.90;;;12.32;;
61702;SDS011;47622;47.726;3.298;2022-12-07T15:02:15;22.58;;;12.15;;
61702;SDS011;47622;47.726;3.298;2022-12-07T15:04:40;22.50;;;11.57;;
61702;SDS011;47622;47.726;3.298;2022-12-07T15:07:10;23.40;;;11.38;;
61702;SDS011;47622;47.726;3.298;2022-12-07T15:09:41;19.08;;;10.48;;
61702;SDS011;47622;47.726;3.298;2022-12-07T15:12:07;18.88;;;10.07;;
61702;SDS011;47622;47.726;3.298;2022-12-07T15:14:33;16.30;;;8.75;;
61702;SDS011;47622;47.726;3.298;2022-12-07T15:16:58;17.50;;;9.25;;
61702;SDS011;47622;47.726;3.298;2022-12-07T15:19:25;19.98;;;10.10;;
61702;SDS011;47622;47.726;3.298;2022-12-07T15:21:52;19.20;;;10.50;;
61702;SDS011;47622;47.726;3.298;2022-12-07T15:24:18;19.20;;;9.35;;
61702;SDS011;47622;47.726;3.298;2022-12-07T15:26:44;18.67;;;8.75;;
61702;SDS011;47622;47.726;3.298;2022-12-07T15:29:10;14.13;;;8.15;;
61702;SDS011;47622;47.726;3.298;2022-12-07T15:31:36;18.58;;;8.60;;
61702;SDS011;47622;47.726;3.298;2022-12-07T15:34:02;18.10;;;8.48;;
61702;SDS011;47622;47.726;3.298;2022-12-07T15:36:30;13.70;;;7.72;;
61702;SDS011;47622;47.726;3.298;2022-12-07T15:38:57;13.50;;;7.88;;
61702;SDS011;47622;47.726;3.298;2022-12-07T15:41:23;14.73;;;7.82;;
61702;SDS011;47622;47.726;3.298;2022-12-07T15:43:49;19.00;;;8.13;;
61702;SDS011;47622;47.726;3.298;2022-12-07T15:46:35;19.25;;;9.13;;
61702;SDS011;47622;47.726;3.298;2022-12-07T15:49:03;14.35;;;8.35;;
61702;SDS011;47622;47.726;3.298;2022-12-07T15:51:29;19.10;;;9.45;;
61702;SDS011;47622;47.726;3.298;2022-12-07T15:53:55;14.95;;;8.50;;
61702;SDS011;47622;47.726;3.298;2022-12-07T15:56:23;16.10;;;8.00;;
61702;SDS011;47622;47.726;3.298;2022-12-07T15:58:49;13.93;;;7.55;;
61702;SDS011;47622;47.726;3.298;2022-12-07T16:01:15;15.20;;;8.18;;
61702;SDS011;47622;47.726;3.298;2022-12-07T16:03:42;16.48;;;8.27;;
61702;SDS011;47622;47.726;3.298;2022-12-07T16:06:09;16.60;;;8.45;;
61702;SDS011;47622;47.726;3.298;2022-12-07T16:08:35;15.20;;;7.53;;
61702;SDS011;47622;47.726;3.298;2022-12-07T16:11:04;15.38;;;8.30;;
61702;SDS011;47622;47.726;3.298;2022-12-07T16:13:31;16.83;;;8.82;;
61702;SDS011;47622;47.726;3.298;2022-12-07T16:15:56;20.70;;;8.90;;
61702;SDS011;47622;47.726;3.298;2022-12-07T16:18:22;15.20;;;7.57;;
61702;SDS011;47622;47.726;3.298;2022-12-07T16:20:48;17.63;;;8.82;;
61702;SDS011;47622;47.726;3.298;2022-12-07T16:23:14;20.77;;;9.05;;
61702;SDS011;47622;47.726;3.298;2022-12-07T16:25:40;16.63;;;8.60;;
61702;SDS011;47622;47.726;3.298;2022-12-07T16:28:06;18.02;;;8.60;;
61702;SDS011;47622;47.726;3.298;2022-12-07T16:30:33;18.70;;;8.98;;
61702;SDS011;47622;47.726;3.298;2022-12-07T16:32:59;17.15;;;9.05;;
61702;SDS011;47622;47.726;3.298;2022-12-07T16:35:24;18.92;;;9.20;;
61702;SDS011;47622;47.726;3.298;2022-12-07T16:37:50;19.35;;;8.15;;
61702;SDS011;47622;47.726;3.298;2022-12-07T16:40:15;20.52;;;8.95;;
61702;SDS011;47622;47.726;3.298;2022-12-07T16:42:41;16.55;;;8.27;;
61702;SDS011;47622;47.726;3.298;2022-12-07T16:45:07;15.68;;;8.43;;
61702;SDS011;47622;47.726;3.298;2022-12-07T16:47:33;21.30;;;8.73;;
61702;SDS011;47622;47.726;3.298;2022-12-07T16:49:58;23.05;;;9.57;;
61702;SDS011;47622;47.726;3.298;2022-12-07T16:52:24;16.30;;;8.15;;
61702;SDS011;47622;47.726;3.298;2022-12-07T16:54:50;17.20;;;8.43;;